Weather search by city/station or by Location Indicator (LI)

Please do one of the following:
a) Search the weather station by station, city or country name and click Search button
b) Enter the four-character Location Indicator (i.e. EFHK = Helsinki) and click Submit button

a) Search the station:   

b) Location Indicator:  

The ICAO Location Indicator code is explained here.

METAR = EFHK 060050Z 20007KT CAVOK 15/11 Q1011 TEMPO FEW030CB

STATIONEFHK
NAMEHelsinki/Vantaa Arpt, UU, FI
OBSERVED06.07.2022 03:50 (06.07.2022 00:50 UTC), 28 min ago
TEMPERATURE15.0°C ( 59°F)
WINDCHILL14.3 °C (58 °F)
WINDSSW at 3.6 m/s (12.96 km/h)
HUMIDITY77%
PRESSURE1010.8 hPa

Click here to select stations based on continents and countries.